createdAt,value
2023-05-12T00:01:06.273Z,94871
2023-05-12T00:04:31.516Z,94870
2023-05-12T00:07:56.630Z,94872
2023-05-12T00:11:21.810Z,94878
2023-05-12T00:14:46.976Z,94874
2023-05-12T00:18:12.173Z,94874
2023-05-12T00:21:37.680Z,94873
2023-05-12T00:25:02.823Z,94873
2023-05-12T00:28:27.996Z,94874
2023-05-12T00:31:53.224Z,94874
2023-05-12T00:35:18.350Z,94873
2023-05-12T00:38:43.555Z,94874
2023-05-12T00:42:08.717Z,94876
2023-05-12T00:45:33.945Z,94872
2023-05-12T00:48:59.060Z,94865
2023-05-12T00:52:24.249Z,94865
2023-05-12T00:55:49.465Z,94866
2023-05-12T00:59:14.633Z,94865
2023-05-12T01:02:39.833Z,94865
2023-05-12T01:06:04.997Z,94867
2023-05-12T01:09:30.184Z,94862
2023-05-12T01:12:55.374Z,94864
2023-05-12T01:16:20.514Z,94867
2023-05-12T01:19:45.692Z,94868
2023-05-12T01:23:10.874Z,94866
2023-05-12T01:26:36.050Z,94869
2023-05-12T01:30:01.324Z,94872
2023-05-12T01:33:26.433Z,94872
2023-05-12T01:36:51.594Z,94875
2023-05-12T01:40:16.764Z,94879
2023-05-12T01:43:41.942Z,94877
2023-05-12T01:47:07.124Z,94877
2023-05-12T01:50:32.253Z,94873
2023-05-12T01:53:57.417Z,94872
2023-05-12T01:57:22.579Z,94871
2023-05-12T02:00:47.768Z,94871
2023-05-12T02:04:12.993Z,94876
2023-05-12T02:07:38.143Z,94875
2023-05-12T02:11:03.298Z,94876
2023-05-12T02:14:28.464Z,94874
2023-05-12T02:19:05.371Z,94874
2023-05-12T02:22:30.473Z,94876
2023-05-12T02:25:55.602Z,94874
2023-05-12T02:29:20.767Z,94876
2023-05-12T02:32:45.947Z,94876
2023-05-12T02:36:11.133Z,94876
2023-05-12T02:39:36.355Z,94871
2023-05-12T02:43:01.477Z,94871
2023-05-12T02:46:26.678Z,94872
2023-05-12T02:49:51.790Z,94872
2023-05-12T02:53:16.984Z,94874
2023-05-12T02:56:42.172Z,94870
2023-05-12T03:00:07.296Z,94869
2023-05-12T03:03:32.607Z,94868
2023-05-12T03:06:57.643Z,94869
2023-05-12T03:10:22.956Z,94869
2023-05-12T03:13:48.050Z,94870
2023-05-12T03:17:13.175Z,94876
2023-05-12T03:20:38.280Z,94865
2023-05-12T03:24:03.458Z,94870
2023-05-12T03:27:28.640Z,94868
2023-05-12T03:30:53.849Z,94870
2023-05-12T03:34:18.975Z,94870
2023-05-12T03:37:44.127Z,94873
2023-05-12T03:41:09.299Z,94873
2023-05-12T03:44:34.487Z,94871
2023-05-12T03:47:59.718Z,94862
2023-05-12T03:51:24.854Z,94871
2023-05-12T03:54:50.050Z,94857
2023-05-12T03:58:15.187Z,94863
2023-05-12T04:01:40.395Z,94861
2023-05-12T04:05:05.649Z,94864
2023-05-12T04:08:30.680Z,94863
2023-05-12T04:11:55.819Z,94860
2023-05-12T04:15:20.989Z,94859
2023-05-12T04:18:46.173Z,94862
2023-05-12T04:22:11.348Z,94862
2023-05-12T04:25:36.463Z,94861
2023-05-12T04:29:01.654Z,94865
2023-05-12T04:32:26.862Z,94867
2023-05-12T04:35:52.018Z,94872
2023-05-12T04:39:17.236Z,94868
2023-05-12T04:42:42.387Z,94874
2023-05-12T04:46:07.552Z,94876
2023-05-12T04:49:32.717Z,94878
2023-05-12T04:52:57.916Z,94880
2023-05-12T04:56:23.201Z,94881
2023-05-12T04:59:48.285Z,94878
2023-05-12T05:03:13.540Z,94887
2023-05-12T05:06:38.660Z,94884
2023-05-12T05:10:03.865Z,94883
2023-05-12T05:13:29.064Z,94885
2023-05-12T05:16:54.246Z,94890
2023-05-12T05:20:19.764Z,94892
2023-05-12T05:23:44.582Z,94893
2023-05-12T05:27:09.732Z,94895
2023-05-12T05:30:34.995Z,94897
2023-05-12T05:34:00.390Z,94894
2023-05-12T05:37:25.568Z,94896
2023-05-12T05:40:53.969Z,94903
2023-05-12T05:44:15.928Z,94900
2023-05-12T05:47:41.220Z,94904
2023-05-12T05:51:06.352Z,94907
2023-05-12T05:54:31.532Z,94910
2023-05-12T05:57:56.711Z,94908
2023-05-12T06:01:21.898Z,94915
2023-05-12T06:04:47.097Z,94910
2023-05-12T06:08:12.267Z,94918
2023-05-12T06:11:37.494Z,94919
2023-05-12T06:15:02.682Z,94922
2023-05-12T06:18:27.855Z,94923
2023-05-12T06:21:53.063Z,94922
2023-05-12T06:25:18.354Z,94926
2023-05-12T06:28:43.389Z,94925
2023-05-12T06:32:08.636Z,94933
2023-05-12T06:35:33.799Z,94936
2023-05-12T06:38:59.017Z,94933
2023-05-12T06:42:24.173Z,94932
2023-05-12T06:45:49.414Z,94932
2023-05-12T06:49:14.598Z,94941
2023-05-12T06:52:39.785Z,94939
2023-05-12T06:56:04.999Z,94940
2023-05-12T06:59:30.146Z,94943
2023-05-12T07:02:55.340Z,94951
2023-05-12T07:06:20.534Z,94943
2023-05-12T07:09:45.682Z,94948
2023-05-12T07:13:10.885Z,94943
2023-05-12T07:16:36.141Z,94941
2023-05-12T07:20:01.284Z,94944
2023-05-12T07:23:26.480Z,94942
2023-05-12T07:26:51.677Z,94944
2023-05-12T07:30:16.997Z,94932
2023-05-12T07:33:42.061Z,94935
2023-05-12T07:37:07.264Z,94939
2023-05-12T07:40:32.427Z,94939
2023-05-12T07:43:57.590Z,94943
2023-05-12T07:47:22.803Z,94942
2023-05-12T07:50:49.411Z,94947
2023-05-12T07:54:14.581Z,94944
2023-05-12T07:57:39.747Z,94944
2023-05-12T08:01:04.913Z,94941
2023-05-12T08:04:30.225Z,94943
2023-05-12T08:07:55.291Z,94952
2023-05-12T08:11:20.462Z,94957
2023-05-12T08:14:45.660Z,94953
2023-05-12T08:18:10.913Z,94956
2023-05-12T08:21:36.091Z,94954
2023-05-12T08:25:01.192Z,94959
2023-05-12T08:28:27.212Z,94946
2023-05-12T08:31:52.392Z,94946
2023-05-12T08:35:17.584Z,94950
2023-05-12T08:38:42.809Z,94950
2023-05-12T08:42:07.938Z,94955
2023-05-12T08:45:33.106Z,94958
2023-05-12T08:48:58.309Z,94960
2023-05-12T08:52:23.678Z,94951
2023-05-12T08:57:08.046Z,94960
2023-05-12T08:59:14.022Z,94960
2023-05-12T09:02:51.836Z,94960
2023-05-12T09:06:04.362Z,94961
2023-05-12T09:09:29.564Z,94964
2023-05-12T09:12:54.764Z,94960
2023-05-12T09:16:19.941Z,94959
2023-05-12T09:19:45.124Z,94956
2023-05-12T09:23:10.324Z,94956
2023-05-12T09:26:35.504Z,94946
2023-05-12T09:30:00.766Z,94948
2023-05-12T09:33:25.885Z,94952
2023-05-12T09:36:51.093Z,94946
2023-05-12T09:40:16.285Z,94943
2023-05-12T09:43:41.731Z,94947
2023-05-12T09:47:07.004Z,94947
2023-05-12T09:50:37.534Z,94945
2023-05-12T09:53:57.360Z,94945
2023-05-12T09:57:22.575Z,94944
2023-05-12T10:04:13.009Z,94951
2023-05-12T10:07:38.788Z,94952
2023-05-12T10:11:03.951Z,94958
2023-05-12T10:14:29.173Z,94952
2023-05-12T10:17:54.459Z,94952
2023-05-12T10:21:19.720Z,94962
2023-05-12T10:24:44.871Z,94959
2023-05-12T10:28:10.082Z,94964
2023-05-12T10:31:35.330Z,94961
2023-05-12T10:35:01.276Z,94955
2023-05-12T10:38:26.621Z,94964
2023-05-12T10:41:52.710Z,94965
2023-05-12T10:45:16.925Z,94962
2023-05-12T10:48:42.091Z,94962
2023-05-12T10:52:07.305Z,94964
2023-05-12T10:55:32.732Z,94971
2023-05-12T10:58:58.576Z,94977
2023-05-12T11:02:24.618Z,94976
2023-05-12T11:05:49.062Z,94964
2023-05-12T11:09:15.514Z,94973
2023-05-12T11:12:40.122Z,94977
2023-05-12T11:16:05.298Z,94979
2023-05-12T11:19:30.533Z,94975
2023-05-12T11:22:55.770Z,94974
2023-05-12T11:26:20.979Z,94973
2023-05-12T11:29:46.254Z,94980
2023-05-12T11:33:11.449Z,94981
2023-05-12T11:36:36.644Z,94977
2023-05-12T11:40:01.892Z,94978
2023-05-12T11:43:27.140Z,94981
2023-05-12T11:46:52.432Z,94982
2023-05-12T11:50:17.570Z,94979
2023-05-12T11:53:42.801Z,94976
2023-05-12T11:57:08.011Z,94974
2023-05-12T12:00:33.544Z,94974
2023-05-12T12:03:58.907Z,94973
2023-05-12T12:07:24.017Z,94974
2023-05-12T12:10:49.261Z,94975
2023-05-12T12:14:14.488Z,94972
2023-05-12T12:17:40.186Z,94974
2023-05-12T12:21:04.991Z,94972
2023-05-12T12:24:30.114Z,94977
2023-05-12T12:27:55.376Z,94974
2023-05-12T12:31:20.641Z,94981
2023-05-12T12:34:45.812Z,94981
2023-05-12T12:38:11.153Z,94978
2023-05-12T12:41:36.221Z,94982
2023-05-12T12:45:01.473Z,94975
2023-05-12T12:48:26.704Z,94974
2023-05-12T12:51:51.924Z,94974
2023-05-12T12:55:17.284Z,94976
2023-05-12T12:58:42.414Z,94983
2023-05-12T13:02:07.700Z,94993
2023-05-12T13:05:32.871Z,94989
2023-05-12T13:08:58.103Z,94993
2023-05-12T13:12:23.371Z,94990
2023-05-12T13:15:48.547Z,94992
2023-05-12T13:19:13.867Z,94988
2023-05-12T13:22:39.016Z,94994
2023-05-12T13:26:04.270Z,94988
2023-05-12T13:29:29.505Z,94994
2023-05-12T13:32:54.715Z,94986
2023-05-12T13:36:19.961Z,94997
2023-05-12T13:39:45.183Z,94995
2023-05-12T13:43:10.401Z,94996
2023-05-12T13:46:35.791Z,94996
2023-05-12T13:50:00.991Z,94997
2023-05-12T13:53:26.231Z,94993
2023-05-12T13:56:51.466Z,94992
2023-05-12T14:00:16.706Z,94994
2023-05-12T14:03:41.976Z,94997
2023-05-12T14:07:08.504Z,95002
2023-05-12T14:10:32.305Z,95001
2023-05-12T14:13:57.501Z,94999
2023-05-12T14:17:22.721Z,95000
2023-05-12T14:20:47.995Z,94998
2023-05-12T14:24:13.138Z,95001
2023-05-12T14:27:38.332Z,95002
2023-05-12T14:31:03.524Z,95006
2023-05-12T14:34:28.770Z,95001
2023-05-12T14:37:54.133Z,95004
2023-05-12T14:41:19.226Z,95004
2023-05-12T14:44:44.449Z,95003
2023-05-12T14:48:09.718Z,95009
2023-05-12T14:51:34.929Z,95009
2023-05-12T14:55:00.236Z,95012
2023-05-12T14:58:25.391Z,95013
2023-05-12T15:01:50.909Z,95004
2023-05-12T15:05:16.040Z,95011
2023-05-12T15:08:41.257Z,95008
2023-05-12T15:12:06.509Z,95012
2023-05-12T15:47:22.492Z,94997
2023-05-12T15:50:47.676Z,95011
2023-05-12T15:54:12.917Z,95007
2023-05-12T15:57:38.175Z,95005
2023-05-12T16:01:03.380Z,94998
2023-05-12T16:04:28.615Z,94997
2023-05-12T16:07:53.813Z,94991
2023-05-12T16:11:19.048Z,94991
2023-05-12T16:14:44.302Z,94992
2023-05-12T16:18:11.456Z,94990
2023-05-12T16:21:34.784Z,94985
2023-05-12T16:24:59.983Z,94986
2023-05-12T16:28:25.222Z,94980
2023-05-12T16:31:50.484Z,94982
2023-05-12T16:35:15.709Z,94979
2023-05-12T16:38:40.966Z,94979
2023-05-12T16:42:06.176Z,94974
2023-05-12T16:45:31.414Z,94976
2023-05-12T16:48:56.662Z,94979
2023-05-12T16:52:21.891Z,94978
2023-05-12T16:55:47.139Z,94982
2023-05-12T16:59:12.360Z,94988
2023-05-12T17:02:38.443Z,94992
2023-05-12T17:06:03.604Z,95001
2023-05-12T17:09:28.831Z,94996
2023-05-12T17:12:54.062Z,94996
2023-05-12T17:16:19.272Z,94998
2023-05-12T17:19:44.469Z,95005
2023-05-12T17:23:09.661Z,95009
2023-05-12T17:26:34.848Z,95009
2023-05-12T17:30:00.189Z,95017
2023-05-12T17:33:25.338Z,95015
2023-05-12T17:36:50.648Z,95018
2023-05-12T17:40:15.914Z,95014
2023-05-12T17:43:41.128Z,95024
2023-05-12T17:47:06.506Z,95024
2023-05-12T17:50:31.690Z,95036
2023-05-12T17:53:56.929Z,95042
2023-05-12T17:57:22.210Z,95045
2023-05-12T18:00:47.422Z,95045
2023-05-12T18:04:12.669Z,95043
2023-05-12T18:07:38.139Z,95050
2023-05-12T18:11:03.396Z,95059
2023-05-12T18:14:28.665Z,95060
2023-05-12T18:17:53.937Z,95054
2023-05-12T18:21:19.167Z,95051
2023-05-12T18:24:44.388Z,95054
2023-05-12T18:28:09.613Z,95051
2023-05-12T18:31:34.857Z,95047
2023-05-12T18:35:00.103Z,95060
2023-05-12T18:38:25.315Z,95063
2023-05-12T18:41:50.499Z,95068
2023-05-12T18:45:15.727Z,95077
2023-05-12T18:48:41.069Z,95086
2023-05-12T18:52:06.308Z,95102
2023-05-12T18:55:31.606Z,95114
2023-05-12T18:58:56.777Z,95113
2023-05-12T19:02:22.016Z,95105
2023-05-12T19:05:48.401Z,95104
2023-05-12T19:09:13.641Z,95105
2023-05-12T19:12:38.953Z,95105
2023-05-12T19:16:04.204Z,95108
2023-05-12T19:19:29.383Z,95111
2023-05-12T19:22:54.598Z,95119
2023-05-12T19:26:19.850Z,95128
2023-05-12T19:29:45.133Z,95133
2023-05-12T19:33:10.345Z,95137
2023-05-12T19:36:35.558Z,95136
2023-05-12T19:40:00.750Z,95145
2023-05-12T19:43:25.938Z,95142
2023-05-12T19:46:51.171Z,95145
2023-05-12T19:50:16.360Z,95144
2023-05-12T19:53:41.597Z,95145
2023-05-12T19:57:06.817Z,95144
2023-05-12T20:00:32.065Z,95142
2023-05-12T20:03:57.316Z,95145
2023-05-12T20:07:22.512Z,95146
2023-05-12T20:10:47.750Z,95153
2023-05-12T20:14:12.970Z,95156
2023-05-12T20:17:38.232Z,95151
2023-05-12T20:21:03.402Z,95151
2023-05-12T20:24:28.588Z,95156
2023-05-12T20:27:53.763Z,95155
2023-05-12T20:31:18.984Z,95160
2023-05-12T20:34:44.131Z,95160
2023-05-12T20:38:09.311Z,95163
2023-05-12T20:41:34.463Z,95168
2023-05-12T20:44:59.648Z,95178
2023-05-12T20:48:24.855Z,95167
2023-05-12T20:51:49.998Z,95168
2023-05-12T20:55:15.202Z,95163
2023-05-12T20:58:40.356Z,95157
2023-05-12T21:02:06.189Z,95165
2023-05-12T21:05:31.300Z,95164
2023-05-12T21:08:56.472Z,95164
2023-05-12T21:12:21.669Z,95163
2023-05-12T21:15:46.845Z,95167
2023-05-12T21:19:12.096Z,95172
2023-05-12T21:22:37.150Z,95170
2023-05-12T21:26:02.331Z,95176
2023-05-12T21:29:27.517Z,95181
2023-05-12T21:32:52.724Z,95179
2023-05-12T21:36:17.834Z,95184
2023-05-12T21:39:43.005Z,95187
2023-05-12T21:43:08.154Z,95189
2023-05-12T21:46:33.397Z,95184
2023-05-12T21:49:58.518Z,95183
2023-05-12T21:53:23.709Z,95181
2023-05-12T21:56:48.873Z,95180
2023-05-12T22:00:14.060Z,95175
2023-05-12T22:03:39.290Z,95175
2023-05-12T22:07:04.400Z,95170
2023-05-12T22:10:29.573Z,95171
2023-05-12T22:13:54.765Z,95182
2023-05-12T22:17:19.932Z,95187
2023-05-12T22:20:45.098Z,95183
2023-05-12T22:24:10.213Z,95183
2023-05-12T22:27:35.366Z,95195
2023-05-12T22:31:00.557Z,95191
2023-05-12T22:34:25.683Z,95193
2023-05-12T22:37:50.862Z,95192
2023-05-12T22:41:16.023Z,95199
2023-05-12T22:44:41.188Z,95199
2023-05-12T22:48:06.406Z,95200
2023-05-12T22:51:31.525Z,95206
2023-05-12T22:54:56.716Z,95204
2023-05-12T22:58:21.842Z,95205
2023-05-12T23:01:47.021Z,95206
2023-05-12T23:05:12.210Z,95210
2023-05-12T23:08:37.369Z,95210
2023-05-12T23:12:02.599Z,95210
2023-05-12T23:15:27.746Z,95214
2023-05-12T23:18:52.937Z,95213
2023-05-12T23:22:18.087Z,95210
2023-05-12T23:25:43.248Z,95208
2023-05-12T23:29:08.426Z,95218
2023-05-12T23:32:33.762Z,95215
2023-05-12T23:35:58.743Z,95217
2023-05-12T23:39:23.916Z,95214
2023-05-12T23:42:49.101Z,95211
2023-05-12T23:46:14.332Z,95204
2023-05-12T23:49:39.439Z,95206
2023-05-12T23:53:04.619Z,95203
2023-05-12T23:56:29.818Z,95198
2023-05-12T23:59:54.950Z,95196
